地図

経路データ

SID SEASON NUMBER BASIN SUBBASIN NAME ISO_TIME NATURE LAT LON WMO_WIND WMO_PRES WMO_AGENCY TRACK_TYPE DIST2LAND LANDFALL IFLAG USA_AGENCY USA_ATCF_ID USA_LAT USA_LON USA_RECORD USA_STATUS USA_WIND USA_PRES USA_SSHS USA_R34_NE USA_R34_SE USA_R34_SW USA_R34_NW USA_R50_NE USA_R50_SE USA_R50_SW USA_R50_NW USA_R64_NE USA_R64_SE USA_R64_SW USA_R64_NW USA_POCI USA_ROCI USA_RMW USA_EYE TOKYO_LAT TOKYO_LON TOKYO_GRADE TOKYO_WIND TOKYO_PRES TOKYO_R50_DIR TOKYO_R50_LONG TOKYO_R50_SHORT TOKYO_R30_DIR TOKYO_R30_LONG TOKYO_R30_SHORT TOKYO_LAND CMA_LAT CMA_LON CMA_CAT CMA_WIND CMA_PRES HKO_LAT HKO_LON HKO_CAT HKO_WIND HKO_PRES NEWDELHI_LAT NEWDELHI_LON NEWDELHI_GRADE NEWDELHI_WIND NEWDELHI_PRES NEWDELHI_CI NEWDELHI_DP NEWDELHI_POCI REUNION_LAT REUNION_LON REUNION_TYPE REUNION_WIND REUNION_PRES REUNION_TNUM REUNION_CI REUNION_RMW REUNION_R34_NE REUNION_R34_SE REUNION_R34_SW REUNION_R34_NW REUNION_R50_NE REUNION_R50_SE REUNION_R50_SW REUNION_R50_NW REUNION_R64_NE REUNION_R64_SE REUNION_R64_SW REUNION_R64_NW BOM_LAT BOM_LON BOM_TYPE BOM_WIND BOM_PRES BOM_TNUM BOM_CI BOM_RMW BOM_R34_NE BOM_R34_SE BOM_R34_SW BOM_R34_NW BOM_R50_NE BOM_R50_SE BOM_R50_SW BOM_R50_NW BOM_R64_NE BOM_R64_SE BOM_R64_SW BOM_R64_NW BOM_ROCI BOM_POCI BOM_EYE BOM_POS_METHOD BOM_PRES_METHOD NADI_LAT NADI_LON NADI_CAT NADI_WIND NADI_PRES WELLINGTON_LAT WELLINGTON_LON WELLINGTON_WIND WELLINGTON_PRES DS824_LAT DS824_LON DS824_STAGE DS824_WIND DS824_PRES TD9636_LAT TD9636_LON TD9636_STAGE TD9636_WIND TD9636_PRES TD9635_LAT TD9635_LON TD9635_WIND TD9635_PRES TD9635_ROCI NEUMANN_LAT NEUMANN_LON NEUMANN_CLASS NEUMANN_WIND NEUMANN_PRES MLC_LAT MLC_LON MLC_CLASS MLC_WIND MLC_PRES USA_GUST BOM_GUST BOM_GUST_PER REUNION_GUST REUNION_GUST_PER USA_SEAHGT USA_SEARAD_NE USA_SEARAD_SE USA_SEARAD_SW USA_SEARAD_NW STORM_SPEED STORM_DIR
1975121N09072 1975 38 NI AS NOT_NAMED 1975-05-01 00:00:00 TS 8.50000 71.5000 main 537 533 O________OO___ jtwc_io IO021975 8.50000 71.5000 -1 8.50000 71.5000 TC 8.50000 71.5000 1 9 348
1975121N09072 1975 38 NI AS NOT_NAMED 1975-05-01 03:00:00 TS 8.95825 71.3981 main 532 516 P________PP___ IO021975 8.97252 71.3901 -1 8.97252 71.3901 TC 8.92971 71.4143 1 9 348
1975121N09072 1975 38 NI AS NOT_NAMED 1975-05-01 06:00:00 TS 9.37918 71.3109 main 516 497 O________OP___ jtwc_io IO021975 9.40000 71.3000 -1 9.40000 71.3000 TC 9.33754 71.3327 1 8 349
1975121N09072 1975 38 NI AS NOT_NAMED 1975-05-01 09:00:00 TS 9.73052 71.2483 main 507 490 P________PP___ IO021975 9.74499 71.2425 -1 9.74499 71.2425 TC 9.70160 71.2598 1 6 350
1975121N09072 1975 38 NI AS NOT_NAMED 1975-05-01 12:00:00 TS 10.0000 71.2000 main 490 481 O________OO___ jtwc_io IO021975 10.0000 71.2000 -1 10.0000 71.2000 TC 10.0000 71.2000 1 5 348
1975121N09072 1975 38 NI AS NOT_NAMED 1975-05-01 15:00:00 TS 10.1924 71.1472 main 490 485 P________PP___ IO021975 10.1800 71.1425 -1 10.1800 71.1425 TC 10.2172 71.1565 1 3 344
1975121N09072 1975 38 NI AS NOT_NAMED 1975-05-01 18:00:00 TS 10.3208 71.1091 main 485 480 O________OP___ jtwc_io IO021975 10.3000 71.1000 -1 10.3000 71.1000 TC 10.3625 71.1274 1 2 349
1975121N09072 1975 38 NI AS NOT_NAMED 1975-05-01 21:00:00 TS 10.4322 71.0982 main 480 475 P________PP___ IO021975 10.4225 71.0925 -1 10.4225 71.0925 TC 10.4515 71.1096 1 2 351
1975121N09072 1975 38 NI AS NOT_NAMED 1975-05-02 00:00:00 TS 10.5000 71.1000 main 475 475 O________OO___ jtwc_io IO021975 10.5000 71.1000 -1 10.5000 71.1000 TC 10.5000 71.1000 1 1 17
1975121N09072 1975 38 NI AS NOT_NAMED 1975-05-02 03:00:00 TS 10.5166 71.0989 main 475 475 P________PP___ IO021975 10.5150 71.1000 -1 10.5150 71.1000 TC 10.5197 71.0969 1 0 0
1975121N09072 1975 38 NI AS NOT_NAMED 1975-05-02 06:00:00 TS 10.5025 71.1000 main 475 475 O________OP___ jtwc_io IO021975 10.5000 71.1000 XX 35 -5 10.5000 71.1000 TC 35 10.5075 71.1000 1 0 138
1975121N09072 1975 38 NI AS NOT_NAMED 1975-05-02 09:00:00 TS 10.4872 71.1010 main 475 475 P________PP___ IO021975 10.4850 71.1000 XX 37 -5 10.4850 71.1000 TC 37 10.4916 71.1031 1 0 0
1975121N09072 1975 38 NI AS NOT_NAMED 1975-05-02 12:00:00 TS 10.5000 71.1000 main 475 470 O________OO___ jtwc_io IO021975 10.5000 71.1000 XX 40 -5 10.5000 71.1000 TC 40 10.5000 71.1000 1 1 0
1975121N09072 1975 38 NI AS NOT_NAMED 1975-05-02 15:00:00 TS 10.5764 71.1018 main 470 465 P________PP___ IO021975 10.5850 71.1075 XX 42 -5 10.5850 71.1075 TC 42 10.5591 71.0903 1 2 0
1975121N09072 1975 38 NI AS NOT_NAMED 1975-05-02 18:00:00 TS 10.6825 71.0908 main 465 460 O________OP___ jtwc_io IO021975 10.7000 71.1000 XX 45 -5 10.7000 71.1000 TC 45 10.6475 71.0724 1 2 348
1975121N09072 1975 38 NI AS NOT_NAMED 1975-05-02 21:00:00 TS 10.7774 71.0528 main 460 460 P________PP___ IO021975 10.7850 71.0575 XX 47 -5 10.7850 71.0575 TC 47 10.7622 71.0434 1 2 338
1975121N09072 1975 38 NI AS NOT_NAMED 1975-05-03 00:00:00 TS 10.9000 71.0000 main 465 455 O________OO___ jtwc_io IO021975 10.9000 71.0000 XX 50 -5 10.9000 71.0000 TC 50 10.9000 71.0000 1 3 342
1975121N09072 1975 38 NI AS NOT_NAMED 1975-05-03 03:00:00 TS 11.0849 70.9488 main 465 456 P________PP___ IO021975 11.0925 70.9575 XX 50 -5 11.0925 70.9575 TC 50 11.0697 70.9313 1 4 344
1975121N09072 1975 38 NI AS NOT_NAMED 1975-05-03 06:00:00 TS 11.2858 70.8834 main 456 456 O________OP___ jtwc_io IO021975 11.3000 70.9000 XX 50 -5 11.3000 70.9000 TC 50 11.2575 70.8501 1 4 336
1975121N09072 1975 38 NI AS NOT_NAMED 1975-05-03 09:00:00 TS 11.4572 70.7846 main 458 458 P________PP___ IO021975 11.4650 70.7925 XX 52 -5 11.4650 70.7925 TC 52 11.4416 70.7688 1 4 330
1975121N09072 1975 38 NI AS NOT_NAMED 1975-05-03 12:00:00 TS 11.6000 70.7000 main 465 462 O________OO___ jtwc_io IO021975 11.6000 70.7000 XX 55 -5 11.6000 70.7000 TC 55 11.6000 70.7000 1 3 339
1975121N09072 1975 38 NI AS NOT_NAMED 1975-05-03 15:00:00 TS 11.7072 70.6832 main 462 459 P________PP___ IO021975 11.7150 70.6925 XX 57 -5 11.7150 70.6925 TC 57 11.6915 70.6646 1 2 0
1975121N09072 1975 38 NI AS NOT_NAMED 1975-05-03 18:00:00 TS 11.7858 70.6808 main 459 459 O________OP___ jtwc_io IO021975 11.8000 70.7000 XX 60 -5 11.8000 70.7000 TC 60 11.7575 70.6424 1 1 347
1975121N09072 1975 38 NI AS NOT_NAMED 1975-05-03 21:00:00 TS 11.8349 70.6463 main 470 467 P________PP___ IO021975 11.8425 70.6575 XX 62 -5 11.8425 70.6575 TC 62 11.8197 70.6240 1 1 326
1975121N09072 1975 38 NI AS NOT_NAMED 1975-05-04 00:00:00 TS 11.9000 70.6000 main 467 465 O________OO___ jtwc_io IO021975 11.9000 70.6000 XX 65 -5 11.9000 70.6000 TC 65 11.9000 70.6000 1 2 335
1975121N09072 1975 38 NI AS NOT_NAMED 1975-05-04 03:00:00 TS 12.0288 70.5537 main 465 465 P________PP___ IO021975 12.0350 70.5500 XX 65 -5 12.0350 70.5500 TC 65 12.0162 70.5612 1 3 341
1975121N09072 1975 38 NI AS NOT_NAMED 1975-05-04 06:00:00 TS 12.1850 70.5050 main 471 469 O________OP___ jtwc_io IO021975 12.2000 70.5000 XX 65 -5 12.2000 70.5000 TC 65 12.1550 70.5150 1 3 343
1975121N09072 1975 38 NI AS NOT_NAMED 1975-05-04 09:00:00 TS 12.3287 70.4537 main 469 469 P________PP___ IO021975 12.3350 70.4500 XX 67 -5 12.3350 70.4500 TC 67 12.3162 70.4612 1 3 342
1975121N09072 1975 38 NI AS NOT_NAMED 1975-05-04 12:00:00 TS 12.5000 70.4000 main 474 463 O________OO___ jtwc_io IO021975 12.5000 70.4000 XX 70 -5 12.5000 70.4000 TC 70 12.5000 70.4000 4 4 345
1975121N09072 1975 38 NI AS NOT_NAMED 1975-05-04 15:00:00 TS 12.7335 70.3491 main 472 454 P________PP___ IO021975 12.7425 70.3575 XX 70 -5 12.7425 70.3575 TC 70 12.7156 70.3322 4 5 347
1975121N09072 1975 38 NI AS NOT_NAMED 1975-05-04 18:00:00 TS 12.9833 70.2859 main 454 448 O________OP___ jtwc_io IO021975 13.0000 70.3000 XX 70 -5 13.0000 70.3000 TC 70 12.9500 70.2576 4 5 342
1975121N09072 1975 38 NI AS NOT_NAMED 1975-05-04 21:00:00 TS 13.2048 70.1930 main 452 447 P________PP___ IO021975 13.2150 70.2000 XX 72 -5 13.2150 70.2000 TC 72 13.1844 70.1791 4 5 336
1975121N09072 1975 38 NI AS NOT_NAMED 1975-05-05 00:00:00 TS 13.4000 70.1000 main 451 447 O________OO___ jtwc_io IO021975 13.4000 70.1000 XX 75 -5 13.4000 70.1000 TC 75 13.4000 70.1000 4 4 338
1975121N09072 1975 38 NI AS NOT_NAMED 1975-05-05 03:00:00 TS 13.5662 70.0416 main 452 448 P________PP___ IO021975 13.5575 70.0500 XX 77 -5 13.5575 70.0500 TC 77 13.5837 70.0250 4 3 341
1975121N09072 1975 38 NI AS NOT_NAMED 1975-05-05 06:00:00 TS 13.7150 69.9833 main 448 440 O________OP___ jtwc_io IO021975 13.7000 70.0000 XX 80 -5 13.7000 70.0000 TC 80 13.7450 69.9500 4 3 348
1975121N09072 1975 38 NI AS NOT_NAMED 1975-05-05 09:00:00 TS 13.8609 69.9665 main 440 440 P________PP___ IO021975 13.8496 70.0123 XX 82 -5 13.8496 70.0123 TC 82 13.8837 69.8750 4 3 328
1975121N09072 1975 38 NI AS NOT_NAMED 1975-05-05 12:00:00 TS 14.0000 69.8000 main 456 456 O________OO___ jtwc_io IO021975 14.0000 69.8000 XX 85 -5 14.0000 69.8000 TC 85 14.0000 69.8000 4 7 295
1975121N09072 1975 38 NI AS NOT_NAMED 1975-05-05 15:00:00 TS 14.1505 69.3263 main 498 498 P________PP___ IO021975 14.1654 69.1127 XX 85 -5 14.1654 69.1127 TC 85 14.1208 69.7535 4 11 284
1975121N09072 1975 38 NI AS NOT_NAMED 1975-05-05 18:00:00 TS 14.2724 68.7009 main 551 551 O________OP___ jtwc_io IO021975 14.3000 68.2000 XX 85 -5 14.3000 68.2000 TC 85 14.2173 69.7026 4 13 279
1975121N09072 1975 38 NI AS NOT_NAMED 1975-05-05 21:00:00 TS 14.3522 67.9734 main 614 614 P________PP___ IO021975 14.3882 67.1474 XX 82 -5 14.3882 67.1474 TC 82 14.2801 69.6254 4 12 275
1975121N09072 1975 38 NI AS NOT_NAMED 1975-05-06 00:00:00 TS 14.3667 67.5000 main 664 649 O________OO___ jtwc_io IO021975 14.4000 66.5000 XX 80 -5 14.4000 66.5000 TC 80 14.3000 69.5000 2 3 261
1975121N09072 1975 38 NI AS NOT_NAMED 1975-05-06 03:00:00 TS 14.3058 67.6742 main 649 614 P________PP___ IO021975 14.3226 66.8551 XX 77 -5 14.3226 66.8551 TC 77 14.2722 69.3124 2 6 106
1975121N09072 1975 38 NI AS NOT_NAMED 1975-05-06 06:00:00 TS 14.2008 68.0916 main 614 590 O________OP___ jtwc_io IO021975 14.2000 67.6000 XX 75 -5 14.2000 67.6000 TC 75 14.2025 69.0749 2 7 106
1975121N09072 1975 38 NI AS NOT_NAMED 1975-05-06 09:00:00 TS 14.1022 68.3900 main 590 580 P________PP___ IO021975 14.1001 68.1851 XX 72 -5 14.1001 68.1851 TC 72 14.1065 68.7999 2 4 117
1975121N09072 1975 38 NI AS NOT_NAMED 1975-05-06 12:00:00 TS 14.0000 68.5000 main 586 586 O________OO___ jtwc_io IO021975 14.0000 68.5000 XX 70 -5 14.0000 68.5000 TC 70 14.0000 68.5000 2 3 215
1975121N09072 1975 38 NI AS NOT_NAMED 1975-05-06 15:00:00 TS 13.8916 68.2390 main 619 619 P________PP___ IO021975 13.9001 68.2624 XX 67 -5 13.9001 68.2624 TC 67 13.8747 68.1922 2 7 252
1975121N09072 1975 38 NI AS NOT_NAMED 1975-05-06 18:00:00 TS 13.7825 67.8215 main 663 663 O________OP___ jtwc_io IO021975 13.8000 67.8000 XX 65 -5 13.8000 67.8000 TC 65 13.7476 67.8645 2 7 253
1975121N09072 1975 38 NI AS NOT_NAMED 1975-05-06 21:00:00 TS 13.6672 67.5048 main 697 697 P________PP___ IO021975 13.6774 67.4925 XX 67 -5 13.6774 67.4925 TC 67 13.6466 67.5296 2 6 253
1975121N09072 1975 38 NI AS NOT_NAMED 1975-05-07 00:00:00 TS 13.6000 67.2000 main 731 731 O________OO___ jtwc_io IO021975 13.6000 67.2000 XX 70 -5 13.6000 67.2000 TC 70 13.6000 67.2000 2 6 266
1975121N09072 1975 38 NI AS NOT_NAMED 1975-05-07 03:00:00 TS 13.6266 66.8869 main 760 760 P________PP___ IO021975 13.6125 66.9000 XX 72 -5 13.6125 66.9000 TC 72 13.6548 66.8608 2 6 281
1975121N09072 1975 38 NI AS NOT_NAMED 1975-05-07 06:00:00 TS 13.7209 66.5777 main 784 784 O________OP___ jtwc_io IO021975 13.7000 66.6000 XX 75 -5 13.7000 66.6000 TC 75 13.7626 66.5331 2 7 292
1975121N09072 1975 38 NI AS NOT_NAMED 1975-05-07 09:00:00 TS 13.8681 66.2647 main 805 805 P________PP___ IO021975 13.8575 66.2776 XX 77 -5 13.8575 66.2776 TC 77 13.8892 66.2389 2 6 296
1975121N09072 1975 38 NI AS NOT_NAMED 1975-05-07 12:00:00 TS 14.0000 66.0000 main 831 831 O________OO___ jtwc_io IO021975 14.0000 66.0000 XX 80 -5 14.0000 66.0000 TC 80 14.0000 66.0000 2 5 289
1975121N09072 1975 38 NI AS NOT_NAMED 1975-05-07 15:00:00 TS 14.0146 65.8251 main 852 852 P________PP___ IO021975 14.0150 65.8124 XX 82 -5 14.0150 65.8124 TC 82 14.0138 65.8503 2 3 271
1975121N09072 1975 38 NI AS NOT_NAMED 1975-05-07 18:00:00 TS 14.0041 65.7182 main 862 862 O________OP___ jtwc_io IO021975 14.0000 65.7000 XX 85 -5 14.0000 65.7000 TC 85 14.0122 65.7546 2 2 273
1975121N09072 1975 38 NI AS NOT_NAMED 1975-05-07 21:00:00 TS 14.0231 65.6605 main 862 862 P________PP___ IO021975 14.0200 65.6499 XX 87 -5 14.0200 65.6499 TC 87 14.0295 65.6816 2 2 310
1975121N09072 1975 38 NI AS NOT_NAMED 1975-05-08 00:00:00 TS 14.1000 65.6000 main 868 865 O________OO___ jtwc_io IO021975 14.1000 65.6000 XX 90 -5 14.1000 65.6000 TC 90 14.1000 65.6000 2 3 322
1975121N09072 1975 38 NI AS NOT_NAMED 1975-05-08 03:00:00 TS 14.2760 65.4595 main 871 871 P________PP___ IO021975 14.2700 65.4650 XX 92 -5 14.2700 65.4650 TC 92 14.2879 65.4484 2 5 324
1975121N09072 1975 38 NI AS NOT_NAMED 1975-05-08 06:00:00 TS 14.5092 65.2951 main 886 883 O________OP___ jtwc_io IO021975 14.5000 65.3000 XX 95 -5 14.5000 65.3000 TC 95 14.5276 65.2854 2 6 327
1975121N09072 1975 38 NI AS NOT_NAMED 1975-05-08 09:00:00 TS 14.7695 65.1333 main 887 876 P________PP___ IO021975 14.7650 65.1351 XX 92 -5 14.7650 65.1351 TC 92 14.7785 65.1297 2 6 330
1975121N09072 1975 38 NI AS NOT_NAMED 1975-05-08 12:00:00 TS 15.0000 65.0000 main 876 867 O________OO___ jtwc_io IO021975 15.0000 65.0000 XX 90 -5 15.0000 65.0000 TC 90 15.0000 65.0000 2 4 332
1975121N09072 1975 38 NI AS NOT_NAMED 1975-05-08 15:00:00 TS 15.1242 64.9317 main 871 865 P________PP___ IO021975 15.1225 64.9349 XX 87 -5 15.1225 64.9349 TC 87 15.1277 64.9251 2 2 334
1975121N09072 1975 38 NI AS NOT_NAMED 1975-05-08 18:00:00 TS 15.2075 64.8924 main 865 856 O________OP___ jtwc_io IO021975 15.2000 64.9000 XX 85 -5 15.2000 64.9000 TC 85 15.2224 64.8772 2 2 336
1975121N09072 1975 38 NI AS NOT_NAMED 1975-05-08 21:00:00 TS 15.2970 64.8519 main 856 845 P________PP___ IO021975 15.2925 64.8575 XX 82 -5 15.2925 64.8575 TC 82 15.3059 64.8408 2 2 335
1975121N09072 1975 38 NI AS NOT_NAMED 1975-05-09 00:00:00 TS 15.4000 64.8000 main 845 830 O________OO___ jtwc_io IO021975 15.4000 64.8000 XX 80 -5 15.4000 64.8000 TC 80 15.4000 64.8000 2 3 330
1975121N09072 1975 38 NI AS NOT_NAMED 1975-05-09 03:00:00 TS 15.5429 64.7067 main 830 810 P________PP___ IO021975 15.5425 64.7000 XX 77 -5 15.5425 64.7000 TC 77 15.5438 64.7201 2 4 329
1975121N09072 1975 38 NI AS NOT_NAMED 1975-05-09 06:00:00 TS 15.7000 64.6117 main 810 795 O________OP___ jtwc_io IO021975 15.7000 64.6000 XX 75 -5 15.7000 64.6000 TC 75 15.7000 64.6351 2 4 333
1975121N09072 1975 38 NI AS NOT_NAMED 1975-05-09 09:00:00 TS 15.8571 64.5425 main 790 785 P________PP___ IO021975 15.8575 64.5350 XX 72 -5 15.8575 64.5350 TC 72 15.8563 64.5576 2 3 341
1975121N09072 1975 38 NI AS NOT_NAMED 1975-05-09 12:00:00 TS 16.0000 64.5000 main 785 780 O________OO___ jtwc_io IO021975 16.0000 64.5000 XX 70 -5 16.0000 64.5000 TC 70 16.0000 64.5000 1 3 347
1975121N09072 1975 38 NI AS NOT_NAMED 1975-05-09 15:00:00 TS 16.1071 64.4878 main 780 776 P________PP___ IO021975 16.1075 64.4925 XX 67 -5 16.1075 64.4925 TC 67 16.1062 64.4784 1 2 352
1975121N09072 1975 38 NI AS NOT_NAMED 1975-05-09 18:00:00 TS 16.2000 64.4925 main 776 771 O________OP___ jtwc_io IO021975 16.2000 64.5000 XX 65 -5 16.2000 64.5000 TC 65 16.2000 64.4774 1 2 0
1975121N09072 1975 38 NI AS NOT_NAMED 1975-05-09 21:00:00 TS 16.2929 64.4959 main 771 767 P________PP___ IO021975 16.2925 64.5000 XX 62 -5 16.2925 64.5000 TC 62 16.2937 64.4878 1 2 8
1975121N09072 1975 38 NI AS NOT_NAMED 1975-05-10 00:00:00 TS 16.4000 64.5000 main 767 762 O________OO___ jtwc_io IO021975 16.4000 64.5000 XX 60 -5 16.4000 64.5000 TC 60 16.4000 64.5000 1 2 4
1975121N09072 1975 38 NI AS NOT_NAMED 1975-05-10 03:00:00 TS 16.5361 64.5000 main 762 754 P________PP___ IO021975 16.5425 64.5000 XX 57 -5 16.5425 64.5000 TC 57 16.5234 64.5000 1 3 3
1975121N09072 1975 38 NI AS NOT_NAMED 1975-05-10 06:00:00 TS 16.6875 64.5000 main 754 749 O________OP___ jtwc_io IO021975 16.7000 64.5000 XX 55 -5 16.7000 64.5000 TC 55 16.6625 64.5000 1 3 0
1975121N09072 1975 38 NI AS NOT_NAMED 1975-05-10 09:00:00 TS 16.8351 64.5000 main 749 734 P________PP___ IO021975 16.8425 64.5000 XX 52 -5 16.8425 64.5000 TC 52 16.8203 64.5000 1 3 0
1975121N09072 1975 38 NI AS NOT_NAMED 1975-05-10 12:00:00 TS 17.0000 64.5000 main 734 719 O________OO___ jtwc_io IO021975 17.0000 64.5000 XX 50 -5 17.0000 64.5000 TC 50 17.0000 64.5000 1 4 0
1975121N09072 1975 38 NI AS NOT_NAMED 1975-05-10 15:00:00 TS 17.1830 64.4987 main 719 705 P________PP___ IO021975 17.1850 64.5000 XX 47 -5 17.1850 64.5000 TC 47 17.1791 64.4960 1 4 0
1975121N09072 1975 38 NI AS NOT_NAMED 1975-05-10 18:00:00 TS 17.3942 64.4975 main 705 691 O________OP___ jtwc_io IO021975 17.4000 64.5000 XX 45 -5 17.4000 64.5000 TC 45 17.3825 64.4926 1 4 357
1975121N09072 1975 38 NI AS NOT_NAMED 1975-05-10 21:00:00 TS 17.6249 64.4976 main 691 670 P________PP___ IO021975 17.6275 64.5000 XX 42 -5 17.6275 64.5000 TC 42 17.6197 64.4929 1 5 0
1975121N09072 1975 38 NI AS NOT_NAMED 1975-05-11 00:00:00 TS 17.9000 64.5000 main 670 648 O________OO___ jtwc_io IO021975 17.9000 64.5000 XX 40 -5 17.9000 64.5000 TC 40 17.9000 64.5000 1 6 0
1975121N09072 1975 38 NI AS NOT_NAMED 1975-05-11 03:00:00 TS 18.2280 64.5004 main 648 617 P________PP___ IO021975 18.2275 64.4926 XX 37 -5 18.2275 64.4926 TC 37 18.2291 64.5161 1 7 0
1975121N09072 1975 38 NI AS NOT_NAMED 1975-05-11 06:00:00 TS 18.5992 64.5133 main 617 587 O________OP___ jtwc_io IO021975 18.6000 64.5000 XX 35 -5 18.6000 64.5000 TC 35 18.5975 64.5398 1 8 3
1975121N09072 1975 38 NI AS NOT_NAMED 1975-05-11 09:00:00 TS 18.9941 64.5495 main 587 551 P________PP___ IO021975 18.9950 64.5399 XX 32 -5 18.9950 64.5399 TC 32 18.9922 64.5686 1 8 6
1975121N09072 1975 38 NI AS NOT_NAMED 1975-05-11 12:00:00 TS 19.4000 64.6000 main 551 O________OO___ jtwc_io IO021975 19.4000 64.6000 XX 30 -5 19.4000 64.6000 TC 30 19.4000 64.6000 6 8 5

IBTrACS Databaseについて

本データベースは、米国NOAAが公開する1842年以降の世界の熱帯低気圧のベストトラックデータアーカイブInternational Best Track Archive for Climate Stewardship (IBTrACS)を、ウェブで閲覧しやすい形式に変換したものです。

最終更新日:2021-12-03